Time;durP1;ratioP1;P1;durP2;ratioP2;P2;SDS_P1;SDS_P2;PMS_P1;PMS_P2;Temp;Humidity;BMP_temperature;BMP_pressure;BME280_temperature;BME280_humidity;BME280_pressure;Samples;Min_cycle;Max_cycle;Signal;HPM_P1;HPM_P2
2021/12/19 00:00:46;;;;;;;4.50;2.00;;;;;;;5.85;90.04;101335.03;1786769;80;21508;-74
2021/12/19 00:08:50;;;;;;;3.93;2.13;;;;;;;5.91;90.08;101325.94;1787340;80;21024;-74
2021/12/19 00:11:21;;;;;;;5.03;2.27;;;;;;;5.92;90.10;101322.45;1788134;80;21333;-74
2021/12/19 00:13:49;;;;;;;3.13;2.00;;;;;;;5.94;90.15;101322.05;1789119;80;20995;-73
2021/12/19 00:16:17;;;;;;;3.20;2.40;;;;;;;5.94;90.15;101312.50;1789143;80;21016;-74
2021/12/19 00:18:46;;;;;;;7.53;2.97;;;;;;;5.95;90.26;101314.22;1789343;80;21007;-74
2021/12/19 00:21:20;;;;;;;5.10;3.17;;;;;;;5.95;90.36;101308.16;1789433;80;21008;-73
2021/12/19 00:23:51;;;;;;;5.20;2.60;;;;;;;5.95;90.36;101299.05;1789528;80;21108;-74
2021/12/19 00:26:18;;;;;;;5.62;3.00;;;;;;;5.97;90.34;101306.42;1789309;80;21039;-74
2021/12/19 00:28:47;;;;;;;4.93;2.80;;;;;;;6.00;90.27;101303.81;1789463;80;21444;-73
2021/12/19 00:31:14;;;;;;;5.10;2.97;;;;;;;6.00;90.18;101307.71;1789258;80;21479;-74
2021/12/19 00:33:42;;;;;;;8.37;3.27;;;;;;;5.99;90.17;101304.25;1789484;80;21008;-74
2021/12/19 00:36:10;;;;;;;6.87;2.60;;;;;;;6.01;90.29;101298.61;1789225;80;21099;-74
2021/12/19 00:38:37;;;;;;;5.07;2.67;;;;;;;6.02;90.27;101296.42;1789233;80;21082;-74
2021/12/19 00:41:06;;;;;;;7.73;3.00;;;;;;;6.05;90.30;101296.00;1789489;80;21030;-74
2021/12/19 00:43:44;;;;;;;6.33;2.73;;;;;;;6.07;90.31;101289.02;1789357;80;20984;-74
2021/12/19 00:46:07;;;;;;;5.47;2.60;;;;;;;6.09;90.35;101289.45;1788009;80;21015;-74
2021/12/19 00:48:39;;;;;;;6.30;3.30;;;;;;;6.11;90.31;101282.95;1789227;80;21071;-74
2021/12/19 00:51:10;;;;;;;8.90;4.40;;;;;;;6.10;90.43;101275.58;1789543;80;21035;-73
2021/12/19 00:53:38;;;;;;;7.33;3.50;;;;;;;6.10;90.49;101274.72;1789374;80;21012;-74
2021/12/19 00:56:08;;;;;;;11.47;3.87;;;;;;;6.12;90.51;101254.73;1789568;80;20992;-74
2021/12/19 00:58:35;;;;;;;6.40;3.30;;;;;;;6.14;90.40;101253.86;1789408;80;21070;-73
2021/12/19 01:01:07;;;;;;;9.33;3.00;;;;;;;6.14;90.37;101245.19;1789579;80;21095;-74
2021/12/19 01:03:35;;;;;;;6.77;2.33;;;;;;;6.14;90.36;101249.95;1789145;80;20991;-74
2021/12/19 01:06:04;;;;;;;9.17;3.00;;;;;;;6.17;90.46;101238.66;1789476;80;20999;-74
2021/12/19 01:08:31;;;;;;;7.47;2.97;;;;;;;6.17;90.43;101238.22;1789114;80;20965;-74
2021/12/19 01:10:59;;;;;;;7.87;3.10;;;;;;;6.19;90.42;101250.80;1779738;80;21331;-74
2021/12/19 01:13:26;;;;;;;7.40;3.33;;;;;;;6.22;90.51;101238.20;1755094;81;20968;-74
2021/12/19 01:15:54;;;;;;;5.10;3.07;;;;;;;6.23;90.53;101249.03;1755000;81;20996;-74
2021/12/19 01:18:21;;;;;;;9.67;3.53;;;;;;;6.25;90.44;101253.80;1755039;81;21548;-74
2021/12/19 01:20:48;;;;;;;8.20;3.50;;;;;;;6.27;90.47;101247.30;1755061;81;21003;-74
2021/12/19 01:23:15;;;;;;;9.80;4.73;;;;;;;6.29;90.48;101248.13;1755173;81;20980;-74
2021/12/19 01:25:42;;;;;;;9.07;3.43;;;;;;;6.30;90.43;101239.47;1754976;81;21186;-74
2021/12/19 01:28:10;;;;;;;5.10;2.70;;;;;;;6.29;90.46;101242.52;1755220;81;20999;-74
2021/12/19 01:30:37;;;;;;;7.93;3.10;;;;;;;6.28;90.58;101235.55;1755042;81;20980;-74
2021/12/19 01:33:04;;;;;;;9.73;3.93;;;;;;;6.29;90.56;101229.50;1755391;81;21027;-74
2021/12/19 01:35:32;;;;;;;6.33;3.30;;;;;;;6.31;90.48;101232.93;1755041;81;21477;-73
2021/12/19 01:37:59;;;;;;;8.80;3.50;;;;;;;6.33;90.47;101221.22;1755264;81;21051;-74
2021/12/19 01:40:27;;;;;;;7.00;3.50;;;;;;;6.33;90.43;101209.06;1754981;81;20992;-74
2021/12/19 01:42:57;;;;;;;6.30;3.23;;;;;;;6.34;90.38;101204.27;1755227;81;21000;-74
2021/12/19 01:45:29;;;;;;;7.78;3.30;;;;;;;6.34;90.42;101221.63;1755171;81;21470;-74
2021/12/19 01:47:58;;;;;;;9.77;4.30;;;;;;;6.34;90.45;101205.57;1755141;81;21063;-74
2021/12/19 01:50:25;;;;;;;8.93;2.90;;;;;;;6.36;90.41;101188.65;1755047;81;21074;-74
2021/12/19 01:52:53;;;;;;;9.93;3.47;;;;;;;6.36;90.41;101184.74;1755096;81;21047;-74
2021/12/19 01:55:20;;;;;;;7.30;3.77;;;;;;;6.34;90.43;101176.07;1754980;81;20999;-74
2021/12/19 01:57:47;;;;;;;5.87;3.13;;;;;;;6.34;90.55;101166.95;1755250;81;20988;-74
2021/12/19 02:00:28;;;;;;;7.23;3.07;;;;;;;6.35;90.50;101169.56;1755034;81;21075;-74
2021/12/19 02:02:57;;;;;;;8.87;3.30;;;;;;;6.35;90.33;101161.75;1755211;81;21501;-74
2021/12/19 02:05:27;;;;;;;8.93;3.60;;;;;;;6.36;90.28;101158.27;1754892;81;21000;-74
2021/12/19 02:07:57;;;;;;;8.93;3.37;;;;;;;6.39;90.25;101161.28;1755386;81;21019;-74
2021/12/19 02:10:28;;;;;;;6.58;3.58;;;;;;;6.39;90.16;101153.03;1755164;81;21406;-73
2021/12/19 02:12:58;;;;;;;6.73;3.63;;;;;;;6.39;90.24;101149.56;1754983;80;21263;-74
2021/12/19 02:15:29;;;;;;;9.58;4.35;;;;;;;6.37;90.29;101121.36;1755131;81;22031;-74
2021/12/19 02:18:01;;;;;;;9.07;4.00;;;;;;;6.37;90.22;101129.17;1755283;81;21462;-74
2021/12/19 02:20:39;;;;;;;8.47;4.03;;;;;;;6.37;90.11;101113.11;1755136;81;21453;-74
2021/12/19 02:23:08;;;;;;;6.17;3.20;;;;;;;6.39;90.05;101102.70;1718587;83;21727;-74
2021/12/19 02:25:35;;;;;;;9.73;3.17;;;;;;;6.40;89.96;101103.11;1665833;84;21022;-74
2021/12/19 02:28:03;;;;;;;10.27;3.17;;;;;;;6.41;89.91;101109.62;1706522;84;21107;-74
2021/12/19 02:30:30;;;;;;;8.60;3.50;;;;;;;6.42;89.86;101110.03;1706555;84;20962;-74
2021/12/19 02:32:58;;;;;;;8.30;3.87;;;;;;;6.43;89.87;101105.72;1706287;84;21035;-74
2021/12/19 02:35:29;;;;;;;8.33;3.90;;;;;;;6.40;89.91;101097.48;1706596;84;21005;-74
2021/12/19 02:48:22;;;;;;;8.27;3.47;;;;;;;6.40;89.70;101071.45;1708828;82;20995;-74
2021/12/19 02:50:53;;;;;;;7.47;3.60;;;;;;;6.41;89.56;101073.61;1736952;82;20991;-74
2021/12/19 02:53:39;;;;;;;12.23;4.37;;;;;;;6.38;89.59;101084.91;1736686;82;21913;-74
2021/12/19 02:56:10;;;;;;;12.63;3.40;;;;;;;6.37;89.52;101070.59;1736853;82;21568;-73
2021/12/19 02:58:41;;;;;;;8.17;3.27;;;;;;;6.34;89.38;101064.97;1736581;82;21031;-74
2021/12/19 03:01:13;;;;;;;7.40;3.20;;;;;;;6.35;89.10;101061.52;1736921;82;21015;-74
2021/12/19 03:03:40;;;;;;;9.87;2.83;;;;;;;6.38;88.94;101062.78;1735873;82;20991;-74
2021/12/19 03:06:07;;;;;;;8.50;3.10;;;;;;;6.38;88.85;101056.27;1736945;82;21945;-74
2021/12/19 03:08:36;;;;;;;11.47;2.90;;;;;;;6.41;88.82;101053.63;1736589;82;21042;-74
2021/12/19 03:17:56;;;;;;;11.87;3.03;;;;;;;6.42;88.85;101058.40;1783321;80;21514;-74
2021/12/19 03:18:49;;;;;;;13.90;3.60;;;;;;;6.43;88.53;101044.52;1783314;80;21458;-74
2021/12/19 03:21:18;;;;;;;8.30;3.27;;;;;;;6.41;88.36;101043.22;1783417;80;21000;-74
2021/12/19 03:23:45;;;;;;;8.47;3.10;;;;;;;6.43;88.28;101031.50;1783353;80;21047;-74
2021/12/19 03:26:12;;;;;;;7.77;2.50;;;;;;;6.43;88.24;101034.96;1783685;80;21016;-74
2021/12/19 03:28:39;;;;;;;10.23;3.43;;;;;;;6.41;88.17;101031.50;1783247;80;20992;-74
2021/12/19 03:31:06;;;;;;;9.43;3.00;;;;;;;6.39;88.16;101024.58;1783513;80;21246;-74
2021/12/19 03:33:35;;;;;;;12.27;2.97;;;;;;;6.36;88.09;101008.55;1783191;80;20984;-74
2021/12/19 03:36:05;;;;;;;12.00;3.30;;;;;;;6.37;88.01;101017.21;1783554;80;21019;-74
2021/12/19 03:38:44;;;;;;;5.30;2.10;;;;;;;6.35;87.76;101017.25;1783382;80;21478;-74
2021/12/19 03:41:21;;;;;;;6.90;2.50;;;;;;;6.36;87.67;101005.09;1695739;84;21312;-74
2021/12/19 03:43:45;;;;;;;8.67;2.67;;;;;;;6.35;87.63;101020.30;1669587;85;21206;-73
2021/12/19 03:46:13;;;;;;;8.37;2.63;;;;;;;6.35;87.54;101008.58;1669796;85;21045;-74
2021/12/19 03:48:40;;;;;;;9.93;2.70;;;;;;;6.32;87.52;100999.47;1669655;85;21072;-74
2021/12/19 03:51:08;;;;;;;9.03;3.17;;;;;;;6.31;87.49;100992.10;1670045;85;21507;-74
2021/12/19 03:53:35;;;;;;;8.23;2.20;;;;;;;6.31;87.27;100993.41;1669624;85;21033;-75
2021/12/19 03:56:03;;;;;;;10.07;2.50;;;;;;;6.33;87.18;100990.80;1669935;85;21347;-74
2021/12/19 03:58:30;;;;;;;10.83;2.70;;;;;;;6.30;87.09;100972.16;1669663;85;21041;-74
2021/12/19 04:01:00;;;;;;;6.33;2.53;;;;;;;6.31;87.06;100975.18;1670009;85;21065;-74
2021/12/19 04:03:29;;;;;;;7.00;2.60;;;;;;;6.29;87.05;100969.15;1669882;85;21117;-74
2021/12/19 04:05:55;;;;;;;7.00;2.50;;;;;;;6.27;87.17;100963.09;1669926;85;21054;-74
2021/12/19 04:08:23;;;;;;;9.30;2.70;;;;;;;6.27;87.14;100964.39;1669711;85;21130;-74
2021/12/19 04:10:53;;;;;;;9.40;2.50;;;;;;;6.29;87.05;100968.27;1669885;85;21030;-74
2021/12/19 04:13:22;;;;;;;5.20;2.10;;;;;;;6.29;86.91;100966.55;1749512;81;21030;-74
2021/12/19 04:15:51;;;;;;;9.03;2.13;;;;;;;6.31;86.85;100980.83;1781409;80;21009;-74
2021/12/19 04:18:19;;;;;;;5.90;2.17;;;;;;;6.29;86.81;100979.56;1781251;80;21414;-74
2021/12/19 04:20:47;;;;;;;8.37;2.57;;;;;;;6.29;86.83;100970.86;1781150;80;21894;-75
2021/12/19 04:23:14;;;;;;;13.47;2.97;;;;;;;6.29;86.91;100969.56;1781141;80;21004;-74
2021/12/19 04:25:42;;;;;;;9.07;2.63;;;;;;;6.28;86.88;100972.61;1781278;80;21028;-74
2021/12/19 04:28:10;;;;;;;6.47;1.87;;;;;;;6.30;86.81;100973.91;1781172;80;21410;-74
2021/12/19 04:30:37;;;;;;;9.80;2.87;;;;;;;6.30;86.66;100986.48;1781398;80;21008;-74
2021/12/19 04:33:09;;;;;;;8.30;2.40;;;;;;;6.30;86.62;100968.70;1781288;80;21124;-74
2021/12/19 04:35:38;;;;;;;10.73;2.73;;;;;;;6.30;86.57;100966.96;1780996;80;20985;-74
2021/12/19 04:38:50;;;;;;;6.67;2.63;;;;;;;6.27;86.53;100974.80;1781090;80;21521;-74
2021/12/19 04:56:42;;;;;;;9.27;3.20;;;;;;;6.28;86.30;100964.80;1781238;80;21028;-75
2021/12/19 05:15:08;;;;;;;7.27;3.07;;;;;;;6.34;85.94;100970.38;1783099;80;21008;-75
2021/12/19 05:17:35;;;;;;;10.23;3.90;;;;;;;6.33;85.96;100970.83;1783050;80;21004;-74
2021/12/19 05:20:14;;;;;;;8.23;3.53;;;;;;;6.32;85.86;100974.32;1783138;80;21016;-74
2021/12/19 05:22:43;;;;;;;10.87;3.10;;;;;;;6.34;85.82;100971.69;1782116;80;21004;-74
2021/12/19 05:25:14;;;;;;;6.53;2.87;;;;;;;6.36;85.67;100970.80;1781704;80;21526;-74
2021/12/19 05:27:36;;;;;;;7.00;2.87;;;;;;;6.37;85.54;100972.50;1777990;80;21000;-75
2021/12/19 05:30:16;;;;;;;6.87;3.03;;;;;;;6.37;85.53;100974.25;1783117;80;20965;-75
2021/12/19 05:32:49;;;;;;;9.78;3.40;;;;;;;6.37;85.61;100972.95;1783142;80;21064;-74
2021/12/19 05:35:30;;;;;;;9.77;3.20;;;;;;;6.36;85.57;100964.28;1783037;80;22088;-74
2021/12/19 05:46:07;;;;;;;5.83;3.07;;;;;;;6.36;85.39;100925.23;1783449;80;21088;-75
2021/12/19 05:48:36;;;;;;;7.23;3.57;;;;;;;6.33;85.25;100938.28;1783161;80;21019;-74
2021/12/19 05:51:06;;;;;;;7.60;3.30;;;;;;;6.31;85.34;100943.94;1783007;80;21451;-74
2021/12/19 05:53:33;;;;;;;5.97;2.80;;;;;;;6.33;85.17;100947.39;1783453;80;20976;-74
2021/12/19 05:56:00;;;;;;;5.60;2.70;;;;;;;6.36;85.02;100934.79;1746141;82;21088;-74
2021/12/19 05:58:27;;;;;;;11.90;3.17;;;;;;;6.35;84.99;100922.66;1736000;82;20945;-75
2021/12/19 06:00:54;;;;;;;6.27;2.97;;;;;;;6.31;85.06;100934.83;1736168;82;21016;-74
2021/12/19 06:03:21;;;;;;;7.20;3.67;;;;;;;6.27;85.25;100935.75;1736258;82;21187;-74
2021/12/19 06:05:49;;;;;;;9.03;3.70;;;;;;;6.25;85.33;100930.55;1735923;82;21487;-74
2021/12/19 06:08:16;;;;;;;4.47;2.80;;;;;;;6.25;85.39;100934.91;1736054;82;21024;-74
2021/12/19 06:10:43;;;;;;;3.20;2.30;;;;;;;6.27;85.16;100935.75;1736138;82;21016;-74
2021/12/19 06:13:10;;;;;;;9.07;2.93;;;;;;;6.30;84.99;100934.86;1734209;82;21286;-75
2021/12/19 06:15:37;;;;;;;8.17;3.03;;;;;;;6.28;85.06;100930.95;1733055;82;21285;-75
2021/12/19 06:18:05;;;;;;;6.60;3.37;;;;;;;6.25;85.22;100934.45;1733317;82;21518;-75
2021/12/19 06:20:33;;;;;;;6.37;2.93;;;;;;;6.22;85.27;100924.08;1733019;82;21016;-74
2021/12/19 06:23:01;;;;;;;6.40;2.23;;;;;;;6.25;85.15;100929.69;1733372;82;21024;-74
2021/12/19 06:25:28;;;;;;;5.70;2.73;;;;;;;6.27;84.98;100901.91;1733068;82;21028;-75
2021/12/19 06:27:55;;;;;;;5.53;3.40;;;;;;;6.23;85.00;100887.19;1733368;82;21074;-75
2021/12/19 06:30:23;;;;;;;9.33;3.50;;;;;;;6.17;85.14;100885.96;1733021;82;21071;-75
2021/12/19 06:32:50;;;;;;;4.07;2.50;;;;;;;6.15;85.27;100879.91;1733193;82;21552;-74
2021/12/19 06:35:22;;;;;;;4.23;2.20;;;;;;;6.16;85.09;100880.34;1733012;82;21119;-74
2021/12/19 06:37:50;;;;;;;5.77;3.00;;;;;;;6.19;84.98;100888.12;1733311;82;21032;-75
2021/12/19 06:40:21;;;;;;;7.63;2.93;;;;;;;6.17;85.14;100893.77;1733135;82;21120;-74
2021/12/19 06:42:48;;;;;;;5.70;3.00;;;;;;;6.13;85.28;100883.84;1733129;82;21522;-74
2021/12/19 06:45:16;;;;;;;4.97;2.50;;;;;;;6.11;85.38;100886.89;1732989;82;20994;-75
2021/12/19 06:47:44;;;;;;;7.33;2.20;;;;;;;6.14;85.20;100889.91;1733323;82;20997;-74
2021/12/19 06:50:12;;;;;;;4.73;1.97;;;;;;;6.17;85.09;100898.53;1733004;82;21024;-75
2021/12/19 06:52:40;;;;;;;5.50;2.47;;;;;;;6.19;85.15;100901.13;1732992;82;21128;-75
2021/12/19 06:55:09;;;;;;;5.67;2.70;;;;;;;6.14;85.34;100897.72;1732888;82;21005;-74
2021/12/19 06:57:36;;;;;;;6.03;2.90;;;;;;;6.14;85.45;100899.02;1732990;82;21075;-74
2021/12/19 07:00:11;;;;;;;5.10;2.43;;;;;;;6.13;85.54;100895.56;1733066;82;21525;-74
2021/12/19 07:02:38;;;;;;;4.63;2.10;;;;;;;6.19;85.38;100888.12;1732983;82;21494;-74
2021/12/19 07:05:05;;;;;;;2.93;1.87;;;;;;;6.22;85.16;100892.84;1733023;82;21126;-75
2021/12/19 07:07:32;;;;;;;3.90;1.93;;;;;;;6.20;85.29;100895.89;1732917;82;21501;-74
2021/12/19 07:09:59;;;;;;;5.20;2.70;;;;;;;6.18;85.38;100911.10;1733010;82;21001;-74
2021/12/19 07:12:27;;;;;;;5.47;2.53;;;;;;;6.17;85.38;100886.82;1733383;82;21057;-75
2021/12/19 07:14:55;;;;;;;5.03;1.73;;;;;;;6.20;85.20;100883.32;1735883;82;21094;-74
2021/12/19 07:17:22;;;;;;;4.87;2.23;;;;;;;6.23;85.08;100887.19;1735825;82;21133;-75
2021/12/19 07:19:49;;;;;;;5.50;2.47;;;;;;;6.21;85.15;100885.06;1735863;82;21487;-75
2021/12/19 07:22:18;;;;;;;4.87;2.00;;;;;;;6.19;85.33;100876.41;1736205;82;21064;-75
2021/12/19 07:24:48;;;;;;;5.10;2.17;;;;;;;6.18;85.44;100885.96;1735741;82;20996;-75
2021/12/19 07:27:16;;;;;;;;;;;;;;;6.17;85.43;100877.71;1738757;82;21540;-74
2021/12/19 07:29:43;;;;;;;6.83;1.70;;;;;;;6.25;85.23;100885.44;1735856;82;21124;-75
2021/12/19 07:32:12;;;;;;;7.27;2.20;;;;;;;6.23;85.10;100868.97;1735949;82;21080;-75
2021/12/19 07:34:40;;;;;;;5.03;2.45;;;;;;;6.19;85.31;100879.86;1735912;82;21498;-76
2021/12/19 07:37:07;;;;;;;6.00;2.20;;;;;;;6.17;85.49;100873.80;1736144;82;21593;-78
2021/12/19 07:42:03;;;;;;;2.70;1.50;;;;;;;6.19;85.41;100860.79;1736135;82;21084;-77
2021/12/19 07:44:30;;;;;;;3.00;1.50;;;;;;;6.23;85.21;100854.20;1735874;82;21008;-77
2021/12/19 07:46:57;;;;;;;4.97;2.10;;;;;;;6.22;85.33;100857.70;1736053;82;21004;-74
2021/12/19 07:49:24;;;;;;;5.83;2.60;;;;;;;6.20;85.42;100866.41;1735815;82;21064;-75
2021/12/19 07:51:51;;;;;;;7.07;2.30;;;;;;;6.19;85.49;100863.39;1735965;82;20985;-76
2021/12/19 07:54:18;;;;;;;4.10;1.87;;;;;;;6.19;85.41;100865.99;1736203;82;21119;-76
2021/12/19 07:56:46;;;;;;;2.90;1.43;;;;;;;6.24;85.25;100857.70;1736086;82;20985;-76
2021/12/19 07:59:14;;;;;;;4.27;1.60;;;;;;;6.23;85.14;100863.31;1735839;82;21045;-75
2021/12/19 08:01:41;;;;;;;3.50;1.90;;;;;;;6.19;85.35;100847.77;1736129;82;21001;-74
2021/12/19 08:04:08;;;;;;;3.23;1.97;;;;;;;6.17;85.50;100856.03;1736038;82;21088;-76
2021/12/19 08:06:35;;;;;;;5.30;1.77;;;;;;;6.13;85.53;100854.36;1735884;82;22033;-76
2021/12/19 08:09:09;;;;;;;2.37;1.37;;;;;;;6.16;85.44;100873.84;1736004;82;21036;-77
2021/12/19 08:11:42;;;;;;;5.45;1.65;;;;;;;6.18;85.32;100873.36;1735547;82;25661;-75
2021/12/19 08:14:12;;;;;;;2.57;1.53;;;;;;;6.18;85.34;100869.05;1733198;82;21001;-79
2021/12/19 08:16:41;;;;;;;6.50;1.98;;;;;;;6.13;85.56;100876.03;1714495;83;21012;-80
2021/12/19 08:19:09;;;;;;;5.33;2.67;;;;;;;6.12;85.68;100876.03;1750466;82;21194;-81
2021/12/19 08:21:37;;;;;;;5.60;1.80;;;;;;;6.09;85.75;100865.66;1721185;83;21513;-81
2021/12/19 08:24:11;;;;;;;4.63;1.63;;;;;;;6.07;85.73;100863.09;1718473;83;21049;-82
2021/12/19 08:26:42;;;;;;;1.73;1.30;;;;;;;6.09;85.59;100857.41;1721651;83;21064;-80
2021/12/19 08:29:13;;;;;;;1.67;0.98;;;;;;;6.10;85.48;100867.41;1720262;83;21471;-80
2021/12/19 08:31:41;;;;;;;2.67;1.07;;;;;;;6.09;85.43;100857.86;1722098;83;21136;-80
2021/12/19 08:34:08;;;;;;;3.80;1.70;;;;;;;6.06;85.66;100851.39;1718921;83;21016;-81
2021/12/19 08:36:36;;;;;;;5.27;1.60;;;;;;;6.05;85.85;100852.28;1722188;83;22183;-80
2021/12/19 08:39:05;;;;;;;4.60;1.80;;;;;;;6.01;85.85;100857.52;1718586;83;20993;-80
2021/12/19 08:41:32;;;;;;;3.83;1.40;;;;;;;6.00;85.86;100860.13;1713941;83;21028;-80
2021/12/19 08:43:59;;;;;;;5.20;1.40;;;;;;;6.05;85.71;100860.09;1715681;83;21176;-81
2021/12/19 08:46:28;;;;;;;3.47;1.50;;;;;;;6.08;85.50;100854.40;1720774;83;21016;-82
2021/12/19 08:48:55;;;;;;;2.07;1.20;;;;;;;6.08;85.51;100860.91;1718918;83;21044;-80
2021/12/19 08:51:22;;;;;;;3.27;1.70;;;;;;;6.05;85.70;100863.99;1733115;82;21015;-80
2021/12/19 08:53:49;;;;;;;10.97;4.97;;;;;;;6.00;85.84;100851.88;1720419;83;21043;-81
2021/12/19 08:56:16;;;;;;;3.30;1.60;;;;;;;5.97;85.96;100850.61;1722143;83;21853;-82
2021/12/19 08:58:43;;;;;;;2.80;1.53;;;;;;;5.97;85.81;100858.42;1719237;83;21032;-82
2021/12/19 09:01:10;;;;;;;2.27;1.40;;;;;;;5.98;85.68;100848.86;1722169;83;21024;-79
2021/12/19 09:03:37;;;;;;;6.30;2.77;;;;;;;5.97;85.70;100855.81;1719348;83;21020;-81
2021/12/19 09:06:04;;;;;;;7.03;3.20;;;;;;;5.92;85.84;100855.41;1722171;83;21080;-80
2021/12/19 09:08:31;;;;;;;2.00;1.10;;;;;;;5.86;85.96;100856.78;1712460;83;21537;-79
2021/12/19 09:10:58;;;;;;;2.13;1.50;;;;;;;5.82;85.94;100854.66;1702223;83;21039;-80
2021/12/19 09:13:26;;;;;;;2.63;0.80;;;;;;;5.78;85.95;100842.10;1722829;80;21036;-78
2021/12/19 09:15:53;;;;;;;1.43;0.73;;;;;;;5.77;85.86;100841.69;1747262;80;21000;-78
2021/12/19 09:18:21;;;;;;;3.60;1.60;;;;;;;5.76;85.88;100845.18;1743945;81;21016;-80
2021/12/19 09:20:50;;;;;;;1.17;0.70;;;;;;;5.77;85.88;100844.30;1728433;83;21924;-78
2021/12/19 09:23:17;;;;;;;0.77;0.70;;;;;;;5.76;85.87;100831.28;1745598;82;21052;-78
2021/12/19 09:25:45;;;;;;;3.60;1.47;;;;;;;5.76;85.81;100832.59;1745680;81;21068;-76
2021/12/19 09:28:12;;;;;;;1.63;0.70;;;;;;;5.74;85.94;100820.92;1728366;82;21515;-74
2021/12/19 09:30:43;;;;;;;1.83;0.80;;;;;;;5.72;86.01;100821.81;1745955;82;21001;-75
2021/12/19 09:33:10;;;;;;;2.93;1.00;;;;;;;5.73;85.97;100830.02;1745847;82;21151;-75
2021/12/19 09:35:37;;;;;;;2.23;0.90;;;;;;;5.73;85.87;100831.33;1746026;81;21052;-74
2021/12/19 09:38:05;;;;;;;1.87;0.60;;;;;;;5.77;85.91;100839.09;1728409;83;21034;-75
2021/12/19 09:40:36;;;;;;;2.03;0.83;;;;;;;5.80;85.81;100839.50;1745913;82;21020;-78
2021/12/19 09:43:41;;;;;;;2.50;1.30;;;;;;;5.81;85.87;100836.01;1745881;81;21024;-76
2021/12/19 09:45:40;;;;;;;5.97;2.63;;;;;;;5.82;85.90;100835.15;1726468;82;21276;-80
2021/12/19 09:48:08;;;;;;;1.47;0.63;;;;;;;5.84;85.93;100831.22;1734219;81;21082;-77
2021/12/19 09:50:35;;;;;;;5.90;3.20;;;;;;;5.85;85.71;100830.33;1727739;82;21036;-77
2021/12/19 09:53:02;;;;;;;5.33;2.10;;;;;;;5.88;85.72;100829.87;1727829;83;21028;-75
2021/12/19 09:55:29;;;;;;;5.77;2.73;;;;;;;5.91;85.63;100822.03;1728091;83;20957;-76
2021/12/19 09:57:59;;;;;;;3.90;2.20;;;;;;;5.93;85.55;100815.49;1727839;82;21490;-77
2021/12/19 10:00:26;;;;;;;21.70;11.38;;;;;;;5.94;85.50;100809.02;1728095;82;21004;-80
2021/12/19 10:02:53;;;;;;;7.00;3.90;;;;;;;5.93;85.56;100820.31;1727895;82;20997;-84
2021/12/19 10:05:25;;;;;;;15.80;8.63;;;;;;;5.92;85.63;100819.84;1727786;83;21048;-82
2021/12/19 10:07:57;;;;;;;2.60;1.73;;;;;;;5.93;85.69;100820.31;1727825;83;20993;-86
2021/12/19 10:10:45;;;;;;;3.10;1.20;;;;;;;5.94;85.60;100813.37;1727380;82;21769;-88
2021/12/19 10:13:14;;;;;;;4.83;1.63;;;;;;;5.94;85.49;100804.26;1746214;82;20936;-78
2021/12/19 10:15:45;;;;;;;4.47;1.40;;;;;;;5.93;85.51;100805.09;1733218;82;21506;-84
2021/12/19 10:18:15;;;;;;;;;;;;;;;5.94;85.46;100797.76;1735960;82;21003;-83
2021/12/19 10:20:59;;;;;;;8.65;5.90;;;;;;;5.93;85.50;100792.08;1723076;83;20647;-78
2021/12/19 10:23:30;;;;;;;19.93;13.33;;;;;;;5.93;85.56;100784.27;1745875;82;22088;-80
2021/12/19 10:26:08;;;;;;;29.87;17.27;;;;;;;5.93;85.69;100776.47;1735683;81;21011;-85
2021/12/19 10:28:52;;;;;;;5.73;2.80;;;;;;;5.94;85.78;100782.14;1718527;83;21029;-80
2021/12/19 10:31:20;;;;;;;5.33;2.10;;;;;;;5.93;85.68;100777.77;1718586;83;21545;-82
2021/12/19 10:33:48;;;;;;;4.57;1.60;;;;;;;5.93;85.61;100775.17;1718385;83;21063;-81
2021/12/19 10:36:16;;;;;;;2.40;1.20;;;;;;;5.92;85.55;100760.45;1718589;83;21150;-77
2021/12/19 10:38:51;;;;;;;3.50;1.57;;;;;;;5.91;85.54;100762.64;1692535;83;21279;-79
2021/12/19 10:41:22;;;;;;;2.80;1.70;;;;;;;5.89;85.56;100760.48;1718634;83;21016;-78
2021/12/19 10:44:00;;;;;;;3.13;1.40;;;;;;;5.89;85.70;100748.78;1713497;82;21059;-77
2021/12/19 10:46:38;;;;;;;4.20;1.63;;;;;;;5.89;85.67;100744.88;1747890;81;20972;-77
2021/12/19 10:49:21;;;;;;;4.10;1.62;;;;;;;5.86;85.68;100738.42;1743186;81;21152;-75
2021/12/19 10:51:50;;;;;;;3.17;1.33;;;;;;;5.84;85.87;100732.36;1753952;81;21157;-76
2021/12/19 10:54:17;;;;;;;3.23;1.63;;;;;;;5.78;86.03;100739.36;1742243;81;21040;-79
2021/12/19 10:56:44;;;;;;;3.97;1.60;;;;;;;5.76;85.90;100729.44;1744866;81;21044;-77
2021/12/19 10:59:16;;;;;;;3.67;1.17;;;;;;;5.71;85.88;100730.34;1751528;81;21243;-79
2021/12/19 11:01:51;;;;;;;2.73;1.17;;;;;;;5.67;86.00;100727.37;1782350;80;21093;-77
2021/12/19 11:04:22;;;;;;;5.07;1.60;;;;;;;5.69;86.25;100724.31;1782643;80;21017;-77
2021/12/19 11:06:59;;;;;;;2.30;1.33;;;;;;;5.69;86.35;100721.27;1782692;80;21012;-76
2021/12/19 11:09:34;;;;;;;1.60;1.00;;;;;;;5.71;86.35;100718.22;1782195;80;21571;-74
2021/12/19 11:12:10;;;;;;;4.53;1.40;;;;;;;5.72;86.58;100714.73;1763773;80;21004;-76
2021/12/19 11:14:48;;;;;;;4.43;2.33;;;;;;;5.77;86.73;100701.23;1746087;81;22028;-76
2021/12/19 11:17:21;;;;;;;7.50;3.23;;;;;;;5.82;86.79;100688.18;1726541;81;21083;-84
2021/12/19 11:19:52;;;;;;;4.03;2.00;;;;;;;5.86;86.65;100691.14;1727819;83;20968;-79
2021/12/19 11:22:26;;;;;;;4.33;1.70;;;;;;;5.83;86.72;100683.83;1769766;80;21083;-78
2021/12/19 11:25:03;;;;;;;2.67;1.23;;;;;;;5.80;86.86;100689.48;1757939;81;21108;-77
2021/12/19 11:27:32;;;;;;;3.53;1.33;;;;;;;5.79;86.75;100682.98;1785605;80;21101;-78
2021/12/19 11:29:59;;;;;;;2.33;1.10;;;;;;;5.78;86.71;100678.67;1785383;80;20977;-75
2021/12/19 11:32:53;;;;;;;2.00;0.80;;;;;;;5.80;86.78;100682.98;1785437;80;21012;-76
2021/12/19 11:35:25;;;;;;;1.67;1.17;;;;;;;5.81;86.75;100669.53;1763889;80;21022;-77
2021/12/19 11:38:00;;;;;;;1.73;0.90;;;;;;;5.77;86.76;100680.87;1740939;81;21107;-76
2021/12/19 11:40:32;;;;;;;4.97;1.83;;;;;;;5.77;86.84;100673.92;1762399;80;21093;-77
2021/12/19 11:43:11;;;;;;;4.63;2.10;;;;;;;5.76;87.00;100654.00;1727542;83;20985;-77
2021/12/19 11:45:44;;;;;;;3.17;1.60;;;;;;;5.78;87.01;100650.92;1727975;82;21031;-76
2021/12/19 11:48:31;;;;;;;2.93;1.40;;;;;;;5.75;87.12;100670.47;1770295;80;21067;-76
2021/12/19 11:51:01;;;;;;;3.80;1.07;;;;;;;5.75;87.13;100669.61;1752659;80;21021;-75
2021/12/19 11:53:43;;;;;;;2.97;0.97;;;;;;;5.78;87.20;100657.87;1710521;80;21536;-76
2021/12/19 11:56:16;;;;;;;4.80;1.27;;;;;;;5.79;87.17;100649.17;1724673;83;21005;-76
2021/12/19 11:58:52;;;;;;;3.47;1.03;;;;;;;5.77;87.06;100640.11;1724045;83;20920;-75
2021/12/19 12:01:29;;;;;;;4.57;1.30;;;;;;;5.77;87.14;100636.20;1724616;83;20996;-75
2021/12/19 12:04:15;;;;;;;3.50;1.00;;;;;;;5.78;87.25;100636.61;1724814;83;21066;-75
2021/12/19 12:06:45;;;;;;;3.20;1.67;;;;;;;5.80;87.18;100625.75;1724401;83;21520;-75
2021/12/19 12:09:26;;;;;;;5.85;1.82;;;;;;;5.80;87.32;100631.41;1723292;83;21098;-75
2021/12/19 12:12:09;;;;;;;2.07;1.20;;;;;;;5.81;87.27;100631.36;1724966;83;21067;-74
2021/12/19 12:14:59;;;;;;;4.57;1.97;;;;;;;5.83;87.18;100619.66;1723731;83;21099;-74
2021/12/19 12:17:36;;;;;;;3.52;1.62;;;;;;;5.84;87.13;100609.66;1721950;83;21580;-75
2021/12/19 12:20:12;;;;;;;3.20;1.13;;;;;;;5.86;87.08;100588.39;1721716;83;21182;-76
2021/12/19 12:22:44;;;;;;;2.97;1.50;;;;;;;5.88;87.06;100589.69;1721853;83;21432;-74
2021/12/19 12:25:16;;;;;;;;;;;;;;;5.84;87.02;100587.55;1711589;81;21533;-74
2021/12/19 12:27:55;;;;;;;3.53;1.80;;;;;;;5.84;87.03;100589.30;1751142;81;20189;-72
2021/12/19 12:30:36;;;;;;;3.80;1.23;;;;;;;5.83;87.05;100579.33;1744446;81;21009;-72
2021/12/19 12:33:06;;;;;;;3.93;2.00;;;;;;;5.81;87.13;100570.69;1748707;81;21150;-76
2021/12/19 12:35:40;;;;;;;2.67;1.50;;;;;;;5.81;87.21;100591.05;1753618;81;21016;-73
2021/12/19 12:38:10;;;;;;;2.57;1.10;;;;;;;5.83;87.19;100580.63;1753612;81;21031;-73
2021/12/19 12:40:49;;;;;;;2.35;1.27;;;;;;;5.83;87.12;100570.23;1751158;81;21027;-74
2021/12/19 12:43:20;;;;;;;2.73;1.30;;;;;;;5.84;87.00;100555.03;1734191;81;20976;-75
2021/12/19 12:46:01;;;;;;;4.83;2.13;;;;;;;5.86;87.02;100570.62;1754064;81;21180;-73
2021/12/19 12:48:52;;;;;;;2.40;0.90;;;;;;;5.86;86.99;100574.08;1782031;80;21121;-74
2021/12/19 12:51:35;;;;;;;;;;;;;;;5.90;86.97;100565.34;1785050;80;21013;-72